createdAt,value
2023-02-13T00:00:48.735Z,24.00
2023-02-13T00:03:16.073Z,24.23
2023-02-13T00:05:43.379Z,25.95
2023-02-13T00:08:10.804Z,23.20
2023-02-13T00:10:38.139Z,24.02
2023-02-13T00:13:05.403Z,22.60
2023-02-13T00:15:32.896Z,22.10
2023-02-13T00:18:00.299Z,21.98
2023-02-13T00:20:27.535Z,22.02
2023-02-13T00:22:54.909Z,22.83
2023-02-13T00:25:22.246Z,22.30
2023-02-13T00:27:53.892Z,21.55
2023-02-13T00:30:21.662Z,21.80
2023-02-13T00:32:48.965Z,18.70
2023-02-13T00:35:16.258Z,18.73
2023-02-13T00:37:43.546Z,17.55
2023-02-13T00:40:12.398Z,19.42
2023-02-13T00:42:39.724Z,18.92
2023-02-13T00:45:07.257Z,19.50
2023-02-13T00:47:34.598Z,19.33
2023-02-13T00:50:01.832Z,18.05
2023-02-13T00:52:29.100Z,19.05
2023-02-13T00:54:56.387Z,19.67
2023-02-13T00:57:23.715Z,20.25
2023-02-13T00:59:51.633Z,19.55
2023-02-13T01:02:19.120Z,18.55
2023-02-13T01:04:46.455Z,17.73
2023-02-13T01:07:15.826Z,18.30
2023-02-13T01:09:44.188Z,18.25
2023-02-13T01:12:11.436Z,17.08
2023-02-13T01:14:38.693Z,16.27
2023-02-13T01:17:05.936Z,18.08
2023-02-13T01:19:33.240Z,18.05
2023-02-13T01:22:00.499Z,17.95
2023-02-13T01:24:30.025Z,17.85
2023-02-13T01:26:57.425Z,17.33
2023-02-13T01:29:24.811Z,17.92
2023-02-13T01:31:52.215Z,16.00
2023-02-13T01:34:19.635Z,18.77
2023-02-13T01:36:46.968Z,17.15
2023-02-13T01:39:14.377Z,16.50
2023-02-13T01:41:41.852Z,16.42
2023-02-13T01:44:46.747Z,17.63
2023-02-13T01:47:37.878Z,15.93
2023-02-13T01:50:13.294Z,16.23
2023-02-13T01:52:52.134Z,16.00
2023-02-13T01:55:22.173Z,14.65
2023-02-13T01:58:08.380Z,17.05
2023-02-13T02:00:37.186Z,17.48
2023-02-13T02:03:16.261Z,15.35
2023-02-13T02:05:43.880Z,14.77
2023-02-13T02:08:14.975Z,16.15
2023-02-13T02:10:42.758Z,15.73
2023-02-13T02:13:17.400Z,15.57
2023-02-13T02:15:45.990Z,17.20
2023-02-13T02:18:18.918Z,15.80
2023-02-13T02:21:07.667Z,16.08
2023-02-13T02:23:53.471Z,14.82
2023-02-13T02:26:42.036Z,14.88
2023-02-13T02:29:38.819Z,15.98
2023-02-13T02:32:41.068Z,14.27
2023-02-13T02:35:19.143Z,14.15
2023-02-13T02:38:37.641Z,15.93
2023-02-13T02:41:43.024Z,16.33
2023-02-13T02:44:27.127Z,16.23
2023-02-13T02:47:50.909Z,14.38
2023-02-13T02:50:21.089Z,14.75
2023-02-13T02:53:09.420Z,15.38
2023-02-13T02:56:00.187Z,14.10
2023-02-13T02:59:06.363Z,14.65
2023-02-13T03:01:53.364Z,14.45
2023-02-13T03:04:53.932Z,14.93
2023-02-13T03:07:21.627Z,15.23
2023-02-13T03:10:11.938Z,14.20
2023-02-13T03:13:04.672Z,15.75
2023-02-13T03:15:32.922Z,14.63
2023-02-13T03:18:19.172Z,14.75
2023-02-13T03:21:14.506Z,14.65
2023-02-13T03:24:31.697Z,15.00
2023-02-13T03:27:08.467Z,14.32
2023-02-13T03:30:08.701Z,14.45
2023-02-13T03:32:47.806Z,13.20
2023-02-13T03:35:45.930Z,13.25
2023-02-13T03:38:56.388Z,13.93
2023-02-13T03:41:40.767Z,14.32
2023-02-13T03:44:25.746Z,14.30
2023-02-13T03:46:57.024Z,15.13
2023-02-13T03:49:59.504Z,14.38
2023-02-13T03:52:39.523Z,13.90
2023-02-13T03:55:49.932Z,14.10
2023-02-13T03:58:53.146Z,12.75
2023-02-13T04:01:24.038Z,13.23
2023-02-13T04:04:01.228Z,14.77
2023-02-13T04:06:36.409Z,12.90
2023-02-13T04:09:04.037Z,13.63
2023-02-13T04:11:52.547Z,13.45
2023-02-13T04:14:25.268Z,12.93
2023-02-13T04:17:06.989Z,13.45
2023-02-13T04:19:35.161Z,14.05
2023-02-13T04:22:03.228Z,14.07
2023-02-13T04:24:30.910Z,13.20
2023-02-13T04:26:59.042Z,12.90
2023-02-13T04:29:27.396Z,14.05
2023-02-13T04:31:54.827Z,13.60
2023-02-13T04:34:22.391Z,12.98
2023-02-13T04:36:49.741Z,14.30
2023-02-13T04:39:17.065Z,12.95
2023-02-13T04:41:44.438Z,14.38
2023-02-13T04:44:11.721Z,13.73
2023-02-13T04:46:38.983Z,13.13
2023-02-13T04:49:06.201Z,13.88
2023-02-13T04:51:33.468Z,13.80
2023-02-13T04:54:00.749Z,13.55
2023-02-13T04:56:28.009Z,13.43
2023-02-13T04:58:56.349Z,13.05
2023-02-13T05:01:23.914Z,13.05
2023-02-13T05:03:51.184Z,14.80
2023-02-13T05:06:18.702Z,13.82
2023-02-13T05:08:45.973Z,12.95
2023-02-13T05:11:13.200Z,12.77
2023-02-13T05:13:40.436Z,13.68
2023-02-13T05:16:07.810Z,12.73
2023-02-13T05:18:35.170Z,13.95
2023-02-13T05:21:21.252Z,14.43
2023-02-13T05:23:48.487Z,14.07
2023-02-13T05:26:15.810Z,13.13
2023-02-13T05:29:01.628Z,13.38
2023-02-13T05:31:29.010Z,13.85
2023-02-13T05:33:56.441Z,14.93
2023-02-13T05:36:23.703Z,14.25
2023-02-13T05:38:50.971Z,13.65
2023-02-13T05:41:18.282Z,12.93
2023-02-13T05:43:45.560Z,13.15
2023-02-13T05:46:12.816Z,13.25
2023-02-13T05:48:40.123Z,11.85
2023-02-13T05:51:08.194Z,13.13
2023-02-13T05:53:35.591Z,12.95
2023-02-13T05:56:04.392Z,13.07
2023-02-13T05:58:32.692Z,13.93
2023-02-13T06:01:00.718Z,12.40
2023-02-13T06:03:31.808Z,11.80
2023-02-13T06:05:59.675Z,14.25
2023-02-13T06:08:27.236Z,12.73
2023-02-13T06:10:54.677Z,13.35
2023-02-13T06:13:21.997Z,12.57
2023-02-13T06:15:50.834Z,13.65
2023-02-13T06:18:18.295Z,13.25
2023-02-13T06:20:45.639Z,13.32
2023-02-13T06:23:12.989Z,15.45
2023-02-13T06:25:40.676Z,14.23
2023-02-13T06:28:08.225Z,14.23
2023-02-13T06:30:35.637Z,18.65
2023-02-13T06:33:02.962Z,15.63
2023-02-13T06:35:30.258Z,17.80
2023-02-13T06:37:57.492Z,20.15
2023-02-13T06:40:24.892Z,16.75
2023-02-13T06:42:52.228Z,16.10
2023-02-13T06:45:19.502Z,15.68
2023-02-13T06:47:48.535Z,16.88
2023-02-13T06:50:18.150Z,17.92
2023-02-13T06:52:50.066Z,18.83
2023-02-13T06:55:18.413Z,18.80
2023-02-13T06:57:45.816Z,26.05
2023-02-13T07:00:14.544Z,28.13
2023-02-13T07:02:43.279Z,24.20
2023-02-13T07:05:11.599Z,23.10
2023-02-13T07:07:40.743Z,27.95
2023-02-13T07:10:10.903Z,24.63
2023-02-13T07:12:38.432Z,22.48
2023-02-13T07:15:06.680Z,26.60
2023-02-13T07:17:34.458Z,25.02
2023-02-13T07:20:01.941Z,28.30
2023-02-13T07:22:30.466Z,27.90
2023-02-13T07:24:58.996Z,22.88
2023-02-13T07:27:29.301Z,26.55
2023-02-13T07:29:59.723Z,26.25
2023-02-13T07:32:27.030Z,26.27
2023-02-13T07:35:01.796Z,21.67
2023-02-13T07:37:31.583Z,25.83
2023-02-13T07:39:59.277Z,28.25
2023-02-13T07:42:26.539Z,30.10
2023-02-13T07:44:53.880Z,25.50
2023-02-13T07:47:21.159Z,29.40
2023-02-13T07:49:48.481Z,21.50
2023-02-13T07:52:15.787Z,29.02
2023-02-13T07:54:47.550Z,29.17
2023-02-13T07:57:16.257Z,31.52
2023-02-13T07:59:43.775Z,26.83
2023-02-13T08:02:14.280Z,28.35
2023-02-13T08:04:46.197Z,22.77
2023-02-13T08:07:15.047Z,25.67
2023-02-13T08:10:03.255Z,29.75
2023-02-13T08:12:31.501Z,26.45
2023-02-13T08:14:58.816Z,28.08
2023-02-13T08:17:26.113Z,31.92
2023-02-13T08:19:53.374Z,28.77
2023-02-13T08:22:20.674Z,33.45
2023-02-13T08:24:47.955Z,33.08
2023-02-13T08:27:16.011Z,30.50
2023-02-13T08:29:43.228Z,19.48
2023-02-13T08:32:10.954Z,30.67
2023-02-13T08:34:38.225Z,27.17
2023-02-13T08:37:05.520Z,29.58
2023-02-13T08:39:32.893Z,29.75
2023-02-13T08:42:00.318Z,27.95
2023-02-13T08:44:27.620Z,26.23
2023-02-13T08:46:54.974Z,22.80
2023-02-13T08:49:23.411Z,26.08
2023-02-13T08:51:51.095Z,20.60
2023-02-13T08:54:18.447Z,31.48
2023-02-13T08:56:45.757Z,27.17
2023-02-13T08:59:13.080Z,23.80
2023-02-13T09:01:40.564Z,18.77
2023-02-13T09:04:07.949Z,23.80
2023-02-13T09:06:35.290Z,19.08
2023-02-13T09:09:04.788Z,23.08
2023-02-13T09:11:32.052Z,19.52
2023-02-13T09:13:59.338Z,20.17
2023-02-13T09:16:26.683Z,23.83
2023-02-13T09:18:54.011Z,20.83
2023-02-13T09:21:25.621Z,18.85
2023-02-13T09:23:55.137Z,16.45
2023-02-13T09:26:22.685Z,16.75
2023-02-13T09:28:50.169Z,18.52
2023-02-13T09:31:20.963Z,20.40
2023-02-13T09:33:50.405Z,15.60
2023-02-13T09:36:24.001Z,19.13
2023-02-13T09:38:56.608Z,18.10
2023-02-13T09:41:28.021Z,19.17
2023-02-13T09:44:33.783Z,20.15
2023-02-13T09:47:28.897Z,23.75
2023-02-13T09:50:14.803Z,21.02
2023-02-13T09:52:45.655Z,22.50
2023-02-13T09:55:40.038Z,22.02
2023-02-13T09:58:21.966Z,21.70
2023-02-13T10:00:57.093Z,21.73
2023-02-13T10:03:42.452Z,27.05
2023-02-13T10:06:16.328Z,28.75
2023-02-13T10:08:49.836Z,23.80
2023-02-13T10:11:45.144Z,23.15
2023-02-13T10:14:32.673Z,26.73
2023-02-13T10:17:07.983Z,24.10
2023-02-13T10:19:50.438Z,23.58
2023-02-13T10:22:26.189Z,26.67
2023-02-13T10:25:00.447Z,22.95
2023-02-13T10:27:40.059Z,24.13
2023-02-13T10:30:17.475Z,24.85
2023-02-13T10:33:19.361Z,23.25
2023-02-13T10:35:56.399Z,22.83
2023-02-13T10:38:25.160Z,25.08
2023-02-13T10:40:58.246Z,22.95
2023-02-13T10:43:30.008Z,26.15
2023-02-13T10:46:15.624Z,24.85
2023-02-13T10:49:03.408Z,23.63
2023-02-13T10:51:55.257Z,23.42
2023-02-13T10:54:51.112Z,25.08
2023-02-13T10:57:23.892Z,24.25
2023-02-13T11:00:21.421Z,27.83
2023-02-13T11:02:48.964Z,26.67
2023-02-13T11:05:30.204Z,25.33
2023-02-13T11:07:59.346Z,25.02
2023-02-13T11:10:27.599Z,24.15
2023-02-13T11:12:55.836Z,24.65
2023-02-13T11:15:26.079Z,22.80
2023-02-13T11:17:56.229Z,24.80
2023-02-13T11:20:38.928Z,23.98
2023-02-13T11:23:30.825Z,25.13
2023-02-13T11:25:58.828Z,23.38
2023-02-13T11:28:29.484Z,24.58
2023-02-13T11:31:12.718Z,24.60
2023-02-13T11:33:40.793Z,23.45
2023-02-13T11:36:16.464Z,24.20
2023-02-13T11:38:44.628Z,23.65
2023-02-13T11:41:18.163Z,25.02
2023-02-13T11:44:01.029Z,24.05
2023-02-13T11:46:46.863Z,24.40
2023-02-13T11:49:26.933Z,22.15
2023-02-13T11:51:57.377Z,24.73
2023-02-13T11:54:44.937Z,23.90
2023-02-13T11:57:23.152Z,25.77
2023-02-13T11:59:53.031Z,21.65
2023-02-13T12:02:24.663Z,26.55
2023-02-13T12:05:11.761Z,21.50
2023-02-13T12:07:39.779Z,25.50
2023-02-13T12:10:18.660Z,22.25
2023-02-13T12:13:14.368Z,21.08
2023-02-13T12:15:43.408Z,21.75
2023-02-13T12:18:35.676Z,19.48
2023-02-13T12:21:03.630Z,20.42
2023-02-13T12:23:57.760Z,21.30
2023-02-13T12:26:45.462Z,17.92
2023-02-13T12:29:40.228Z,17.35
2023-02-13T12:32:19.492Z,21.35
2023-02-13T12:35:11.342Z,20.33
2023-02-13T12:38:06.093Z,17.10
2023-02-13T12:41:07.496Z,15.60
2023-02-13T12:44:11.897Z,14.77
2023-02-13T12:47:10.307Z,15.27
2023-02-13T12:49:46.783Z,15.50
2023-02-13T12:52:31.135Z,13.77
2023-02-13T12:55:13.679Z,12.20
2023-02-13T12:57:58.923Z,11.23
2023-02-13T13:00:41.067Z,14.52
2023-02-13T13:03:32.397Z,14.25
2023-02-13T13:06:20.699Z,11.02
2023-02-13T13:09:13.408Z,14.85
2023-02-13T13:11:57.912Z,11.20
2023-02-13T13:14:36.317Z,13.00
2023-02-13T13:17:06.381Z,14.45
2023-02-13T13:19:49.307Z,12.43
2023-02-13T13:22:33.094Z,12.93
2023-02-13T13:25:19.015Z,12.38
2023-02-13T13:27:59.154Z,16.20
2023-02-13T13:30:37.587Z,12.07
2023-02-13T13:33:25.341Z,11.38
2023-02-13T13:36:23.086Z,11.52
2023-02-13T13:38:53.068Z,10.07
2023-02-13T13:41:38.934Z,13.43
2023-02-13T13:44:49.792Z,11.57
2023-02-13T13:47:38.245Z,9.15
2023-02-13T13:50:17.492Z,11.85
2023-02-13T13:53:06.597Z,8.50
2023-02-13T13:56:09.493Z,9.23
2023-02-13T13:58:52.151Z,9.05
2023-02-13T14:01:25.810Z,7.68
2023-02-13T14:03:59.182Z,8.80
2023-02-13T14:06:47.875Z,8.20
2023-02-13T14:09:38.683Z,8.48
2023-02-13T14:12:24.713Z,7.53
2023-02-13T14:14:53.449Z,7.75
2023-02-13T14:17:43.365Z,7.80
2023-02-13T14:20:33.258Z,9.30
2023-02-13T14:23:41.783Z,8.60
2023-02-13T14:26:17.847Z,10.95
2023-02-13T14:28:50.864Z,8.77
2023-02-13T14:31:27.432Z,8.93
2023-02-13T14:34:15.758Z,7.35
2023-02-13T14:36:45.956Z,9.35
2023-02-13T14:39:32.410Z,9.38
2023-02-13T14:42:20.850Z,8.75
2023-02-13T14:44:57.909Z,8.57
2023-02-13T14:47:56.582Z,8.15
2023-02-13T14:50:45.771Z,9.00
2023-02-13T14:53:26.617Z,10.23
2023-02-13T14:56:13.002Z,8.75
2023-02-13T14:59:00.679Z,8.98
2023-02-13T15:01:35.778Z,9.57
2023-02-13T15:04:12.795Z,9.02
2023-02-13T15:06:45.884Z,9.00
2023-02-13T15:09:39.001Z,8.50
2023-02-13T15:12:25.800Z,9.43
2023-02-13T15:14:53.427Z,8.73
2023-02-13T15:17:24.730Z,8.68
2023-02-13T15:19:55.778Z,9.90
2023-02-13T15:22:35.392Z,8.50
2023-02-13T15:25:03.317Z,9.80
2023-02-13T15:27:33.849Z,8.60
2023-02-13T15:30:18.941Z,9.05
2023-02-13T15:32:53.874Z,7.47
2023-02-13T15:35:31.007Z,8.77
2023-02-13T15:37:59.110Z,9.45
2023-02-13T15:40:29.731Z,8.00
2023-02-13T15:42:58.357Z,8.15
2023-02-13T15:45:28.512Z,9.25
2023-02-13T15:47:56.727Z,7.95
2023-02-13T15:50:35.985Z,10.48
2023-02-13T15:53:09.921Z,8.20
2023-02-13T15:55:38.450Z,9.13
2023-02-13T15:58:06.155Z,8.00
2023-02-13T16:00:37.016Z,7.82
2023-02-13T16:03:07.336Z,7.70
2023-02-13T16:05:41.440Z,6.88
2023-02-13T16:08:38.602Z,7.45
2023-02-13T16:11:14.932Z,6.75
2023-02-13T16:13:59.876Z,8.02
2023-02-13T16:18:56.278Z,6.60
2023-02-13T16:21:31.319Z,7.03
2023-02-13T16:24:04.074Z,6.45
2023-02-13T16:26:31.512Z,6.30
2023-02-13T16:28:58.846Z,8.43
2023-02-13T16:31:26.371Z,7.25
2023-02-13T16:33:53.699Z,6.68
2023-02-13T16:36:29.458Z,6.38
2023-02-13T16:38:56.811Z,7.95
2023-02-13T16:41:26.810Z,6.70
2023-02-13T16:44:04.540Z,7.03
2023-02-13T16:46:42.878Z,8.75
2023-02-13T16:49:10.065Z,8.77
2023-02-13T16:51:53.991Z,7.72
2023-02-13T16:54:29.251Z,7.78
2023-02-13T16:57:14.471Z,5.90
2023-02-13T16:59:47.926Z,8.15
2023-02-13T17:02:18.344Z,7.53
2023-02-13T17:04:51.650Z,6.50
2023-02-13T17:07:28.418Z,7.63
2023-02-13T17:10:04.977Z,6.57
2023-02-13T17:12:37.520Z,7.30
2023-02-13T17:15:07.383Z,7.53
2023-02-13T17:17:34.678Z,7.82
2023-02-13T17:20:04.310Z,10.15
2023-02-13T17:22:34.925Z,8.60
2023-02-13T17:25:04.834Z,8.98
2023-02-13T17:27:32.103Z,7.65
2023-02-13T17:29:59.439Z,7.60
2023-02-13T17:32:28.008Z,7.57
2023-02-13T17:34:55.520Z,8.77
2023-02-13T17:37:27.896Z,8.40
2023-02-13T17:39:55.776Z,7.82
2023-02-13T17:42:28.225Z,10.10
2023-02-13T17:44:57.902Z,10.30
2023-02-13T17:47:26.803Z,11.65
2023-02-13T17:50:02.048Z,9.18
2023-02-13T17:52:32.422Z,8.82
2023-02-13T17:54:59.847Z,12.18
2023-02-13T17:57:27.086Z,11.48
2023-02-13T17:59:55.457Z,9.30
2023-02-13T18:02:24.191Z,10.63
2023-02-13T18:04:51.701Z,10.38
2023-02-13T18:07:20.876Z,10.52
2023-02-13T18:09:48.306Z,10.88
2023-02-13T18:12:22.491Z,11.75
2023-02-13T18:14:51.404Z,12.35
2023-02-13T18:17:19.886Z,12.70
2023-02-13T18:19:47.602Z,12.90
2023-02-13T18:22:15.004Z,12.13
2023-02-13T18:24:42.957Z,13.00
2023-02-13T18:27:12.406Z,11.23
2023-02-13T18:29:40.139Z,11.30
2023-02-13T18:32:10.241Z,11.95
2023-02-13T18:34:39.166Z,12.27
2023-02-13T18:37:07.434Z,18.23
2023-02-13T18:39:34.948Z,13.93
2023-02-13T18:42:02.684Z,17.30
2023-02-13T18:44:30.013Z,20.60
2023-02-13T18:46:57.499Z,21.70
2023-02-13T18:49:25.244Z,21.77
2023-02-13T18:51:52.653Z,22.65
2023-02-13T18:54:21.425Z,22.73
2023-02-13T18:56:48.828Z,18.38
2023-02-13T18:59:16.314Z,20.02
2023-02-13T19:01:45.344Z,18.45
2023-02-13T19:04:13.122Z,22.88
2023-02-13T19:06:41.560Z,22.42
2023-02-13T19:09:09.660Z,18.08
2023-02-13T19:11:38.842Z,21.90
2023-02-13T19:14:06.512Z,19.90
2023-02-13T19:16:36.099Z,21.02
2023-02-13T19:19:06.630Z,23.23
2023-02-13T19:21:36.419Z,18.63
2023-02-13T19:24:05.835Z,20.10
2023-02-13T19:26:33.216Z,24.33
2023-02-13T19:29:00.583Z,22.08
2023-02-13T19:31:30.704Z,17.58
2023-02-13T19:34:00.357Z,19.70
2023-02-13T19:36:29.041Z,20.40
2023-02-13T19:39:01.479Z,19.65
2023-02-13T19:41:29.140Z,20.60
2023-02-13T19:43:56.682Z,22.48
2023-02-13T19:46:29.035Z,19.40
2023-02-13T19:48:56.809Z,22.30
2023-02-13T19:51:27.824Z,19.83
2023-02-13T19:54:04.007Z,21.67
2023-02-13T19:56:35.549Z,21.05
2023-02-13T19:59:03.707Z,26.38
2023-02-13T20:01:31.795Z,25.02
2023-02-13T20:03:59.591Z,28.33
2023-02-13T20:06:32.624Z,23.73
2023-02-13T20:09:01.811Z,22.02
2023-02-13T20:11:29.515Z,29.05
2023-02-13T20:14:04.017Z,24.63
2023-02-13T20:16:33.168Z,25.75
2023-02-13T20:19:07.562Z,30.67
2023-02-13T20:21:35.725Z,29.48
2023-02-13T20:24:03.246Z,23.38
2023-02-13T20:26:31.076Z,26.35
2023-02-13T20:29:01.079Z,25.88
2023-02-13T20:31:29.934Z,27.55
2023-02-13T20:33:58.222Z,36.33
2023-02-13T20:36:28.580Z,21.23
2023-02-13T20:38:59.690Z,24.05
2023-02-13T20:41:30.057Z,37.92
2023-02-13T20:44:06.769Z,31.08
2023-02-13T20:46:36.990Z,35.47
2023-02-13T20:49:05.371Z,29.65
2023-02-13T20:51:32.688Z,33.00
2023-02-13T20:54:00.380Z,26.45
2023-02-13T20:56:28.640Z,56.08
2023-02-13T20:58:58.327Z,26.70
2023-02-13T21:01:40.441Z,36.42
2023-02-13T21:04:11.239Z,26.33
2023-02-13T21:06:40.132Z,25.20
2023-02-13T21:09:09.458Z,27.75
2023-02-13T21:11:38.231Z,26.13
2023-02-13T21:14:06.494Z,22.05
2023-02-13T21:16:37.053Z,26.67
2023-02-13T21:19:13.523Z,21.73
2023-02-13T21:21:44.065Z,25.90
2023-02-13T21:24:17.650Z,21.35
2023-02-13T21:26:46.298Z,20.40
2023-02-13T21:29:13.807Z,22.77
2023-02-13T21:31:47.416Z,18.58
2023-02-13T21:34:18.768Z,19.63
2023-02-13T21:36:46.809Z,19.90
2023-02-13T21:39:15.440Z,21.10
2023-02-13T21:41:46.168Z,18.65
2023-02-13T21:44:15.812Z,18.35
2023-02-13T21:46:44.459Z,20.50
2023-02-13T21:49:18.594Z,20.83
2023-02-13T21:51:46.644Z,30.90
2023-02-13T21:54:14.556Z,20.80
2023-02-13T21:56:42.839Z,17.60
2023-02-13T21:59:14.430Z,17.55
2023-02-13T22:01:42.136Z,16.20
2023-02-13T22:04:10.665Z,20.17
2023-02-13T22:06:39.983Z,17.13
2023-02-13T22:09:10.256Z,24.23
2023-02-13T22:11:37.685Z,22.20
2023-02-13T22:14:07.737Z,14.02
2023-02-13T22:16:37.296Z,17.23
2023-02-13T22:19:05.958Z,21.45
2023-02-13T22:21:34.545Z,17.90
2023-02-13T22:24:02.283Z,14.43
2023-02-13T22:26:31.859Z,17.35
2023-02-13T22:29:08.782Z,18.42
2023-02-13T22:31:37.017Z,16.73
2023-02-13T22:34:06.029Z,14.95
2023-02-13T22:36:38.456Z,15.68
2023-02-13T22:39:06.321Z,14.00
2023-02-13T22:41:33.803Z,14.25
2023-02-13T22:44:01.084Z,14.68
2023-02-13T22:46:31.601Z,11.57
2023-02-13T22:48:59.995Z,15.57
2023-02-13T22:51:31.087Z,14.18
2023-02-13T22:53:59.242Z,14.45
2023-02-13T22:56:28.433Z,12.48
2023-02-13T22:58:55.758Z,12.90
2023-02-13T23:01:25.598Z,12.02
2023-02-13T23:03:53.357Z,13.63
2023-02-13T23:06:21.790Z,12.75
2023-02-13T23:08:52.483Z,11.07
2023-02-13T23:11:40.186Z,12.88
2023-02-13T23:14:07.468Z,11.85
2023-02-13T23:16:53.270Z,10.93
2023-02-13T23:19:22.015Z,13.43
2023-02-13T23:21:49.976Z,11.77
2023-02-13T23:24:17.536Z,11.65
2023-02-13T23:26:45.085Z,12.43
2023-02-13T23:29:12.312Z,11.45
2023-02-13T23:31:39.678Z,11.88
2023-02-13T23:34:07.049Z,11.90
2023-02-13T23:36:35.430Z,10.88
2023-02-13T23:39:02.864Z,11.88
2023-02-13T23:41:30.140Z,11.07
2023-02-13T23:43:57.441Z,10.80
2023-02-13T23:46:24.752Z,10.15
2023-02-13T23:48:52.070Z,11.32
2023-02-13T23:51:21.217Z,10.75
2023-02-13T23:53:48.742Z,11.18
2023-02-13T23:56:16.091Z,10.68
2023-02-13T23:58:43.316Z,11.05
